TimeCST,TemperatureF,Dew PointF,Humidity,Sea Level PressureIn,VisibilityMPH,Wind Direction,Wind SpeedMPH,Gust SpeedMPH,PrecipitationIn,Events,Conditions,WindDirDegrees,DateUTC
12:35 AM,23.0,23.0,100,29.90,10.0,WNW,13.8,19.6,0.03,Snow,Light Snow,290,2013-03-05 06:35:00
12:55 AM,23.0,23.0,100,29.90,10.0,West,11.5,-,0.04,Snow,Light Snow,280,2013-03-05 06:55:00
1:15 AM,23.0,23.0,100,29.90,10.0,West,15.0,19.6,N/A,Snow,Light Snow,280,2013-03-05 07:15:00
1:35 AM,23.0,23.0,100,29.90,10.0,West,11.5,16.1,N/A,Snow,Light Snow,280,2013-03-05 07:35:00
1:55 AM,23.0,23.0,100,29.90,10.0,West,10.4,-,N/A,Snow,Light Snow,270,2013-03-05 07:55:00
2:15 AM,23.0,23.0,100,29.89,10.0,West,11.5,-,N/A,Snow,Light Snow,280,2013-03-05 08:15:00
2:35 AM,23.0,23.0,100,29.89,7.0,West,10.4,-,0.01,Snow,Light Snow,280,2013-03-05 08:35:00
2:55 AM,23.0,23.0,100,29.89,7.0,West,8.1,-,0.05,Snow,Light Snow,280,2013-03-05 08:55:00
3:15 AM,23.0,23.0,100,29.89,10.0,WNW,5.8,-,N/A,Snow,Light Snow,290,2013-03-05 09:15:00
3:35 AM,23.0,23.0,100,29.89,10.0,NW,8.1,-,0.01,Snow,Light Snow,310,2013-03-05 09:35:00
3:55 AM,23.0,23.0,100,29.90,10.0,NW,10.4,-,0.02,Snow,Light Snow,320,2013-03-05 09:55:00
4:15 AM,23.0,23.0,100,29.91,10.0,NW,12.7,17.3,N/A,Snow,Light Snow,320,2013-03-05 10:15:00
4:35 AM,23.0,23.0,100,29.92,8.0,NW,13.8,-,0.01,Snow,Light Snow,320,2013-03-05 10:35:00
4:55 AM,23.0,23.0,100,29.93,10.0,NW,16.1,-,0.02,Snow,Light Snow,320,2013-03-05 10:55:00
5:15 AM,23.0,23.0,100,29.94,10.0,NW,18.4,-,N/A,,Overcast,320,2013-03-05 11:15:00
5:35 AM,23.0,23.0,100,29.95,10.0,NNW,18.4,25.3,N/A,,Overcast,330,2013-03-05 11:35:00
5:55 AM,23.0,23.0,100,29.96,9.0,NNW,17.3,-,N/A,Snow,Light Snow,330,2013-03-05 11:55:00
6:15 AM,24.8,24.8,100,29.98,2.0,NW,16.1,-,0.15,Snow,Light Snow,320,2013-03-05 12:15:00
6:55 AM,23.0,23.0,100,30.01,0.8,NNW,28.8,35.7,0.25,Snow,Light Snow,330,2013-03-05 12:55:00
7:15 AM,23.0,23.0,100,30.03,4.0,NNW,27.6,41.4,N/A,Rain,Freezing Rain,340,2013-03-05 13:15:00
7:35 AM,21.2,21.2,100,30.04,10.0,NNW,25.3,31.1,N/A,Rain,Freezing Rain,340,2013-03-05 13:35:00
7:55 AM,21.2,21.2,100,30.06,10.0,NNW,21.9,33.4,N/A,Rain,Freezing Rain,340,2013-03-05 13:55:00
8:15 AM,21.2,21.2,100,30.07,10.0,NNW,24.2,31.1,N/A,,Overcast,340,2013-03-05 14:15:00
8:35 AM,23.0,23.0,100,30.08,10.0,NNW,24.2,29.9,N/A,Rain,Freezing Rain,340,2013-03-05 14:35:00
8:55 AM,23.0,23.0,100,30.09,10.0,NNW,24.2,31.1,N/A,Rain,Freezing Rain,340,2013-03-05 14:55:00
9:15 AM,23.0,23.0,100,30.10,10.0,NNW,25.3,35.7,N/A,Rain,Freezing Rain,340,2013-03-05 15:15:00
9:35 AM,23.0,23.0,100,30.11,10.0,NNW,27.6,35.7,N/A,Rain,Freezing Rain,340,2013-03-05 15:35:00
9:55 AM,23.0,23.0,100,30.12,10.0,NNW,28.8,34.5,N/A,Snow,Light Snow,340,2013-03-05 15:55:00
10:15 AM,23.0,23.0,100,30.13,10.0,North,27.6,35.7,N/A,,Overcast,350,2013-03-05 16:15:00
10:35 AM,23.0,23.0,100,30.14,10.0,NNW,27.6,38.0,N/A,Rain,Freezing Rain,340,2013-03-05 16:35:00
10:55 AM,23.0,23.0,100,30.15,10.0,North,31.1,40.3,N/A,Rain,Freezing Rain,350,2013-03-05 16:55:00
11:15 AM,23.0,23.0,100,30.16,10.0,NNW,29.9,35.7,N/A,,Overcast,340,2013-03-05 17:15:00
11:35 AM,23.0,23.0,100,30.16,10.0,NNW,27.6,34.5,N/A,,Mostly Cloudy,340,2013-03-05 17:35:00
11:55 AM,23.0,23.0,100,30.18,10.0,NNW,29.9,35.7,N/A,,Mostly Cloudy,340,2013-03-05 17:55:00
12:15 PM,23.0,23.0,100,30.18,10.0,NNW,27.6,34.5,N/A,Rain,Freezing Rain,330,2013-03-05 18:15:00
12:35 PM,23.0,23.0,100,30.19,10.0,NNW,27.6,35.7,N/A,Rain,Freezing Rain,340,2013-03-05 18:35:00
12:55 PM,23.0,23.0,100,30.20,10.0,NNW,28.8,34.5,N/A,,Mostly Cloudy,340,2013-03-05 18:55:00
1:15 PM,23.0,23.0,100,30.20,10.0,NNW,27.6,34.5,N/A,,Overcast,340,2013-03-05 19:15:00
1:35 PM,24.8,24.8,100,30.20,10.0,NNW,27.6,34.5,N/A,,Overcast,340,2013-03-05 19:35:00
1:55 PM,23.0,23.0,100,30.20,10.0,NNW,27.6,33.4,N/A,Rain,Freezing Rain,330,2013-03-05 19:55:00
2:15 PM,23.0,23.0,100,30.20,10.0,NNW,23.0,33.4,N/A,Rain,Freezing Rain,340,2013-03-05 20:15:00
2:35 PM,23.0,23.0,100,30.21,10.0,NNW,26.5,32.2,N/A,,Overcast,330,2013-03-05 20:35:00
2:55 PM,23.0,23.0,100,30.22,10.0,NNW,21.9,33.4,N/A,,Overcast,340,2013-03-05 20:55:00
3:15 PM,23.0,23.0,100,30.23,10.0,NNW,23.0,28.8,N/A,Rain,Freezing Rain,340,2013-03-05 21:15:00
3:35 PM,23.0,23.0,100,30.24,10.0,NNW,24.2,31.1,N/A,,Overcast,340,2013-03-05 21:35:00
3:55 PM,23.0,23.0,100,30.25,10.0,NNW,21.9,28.8,N/A,,Overcast,340,2013-03-05 21:55:00
4:15 PM,23.0,23.0,100,30.25,10.0,NNW,23.0,29.9,N/A,Rain,Freezing Rain,340,2013-03-05 22:15:00
4:35 PM,21.2,21.2,100,30.27,10.0,NNW,23.0,29.9,N/A,Snow,Light Snow,340,2013-03-05 22:35:00
4:55 PM,21.2,21.2,100,30.28,10.0,North,20.7,-,0.01,Snow,Light Snow,350,2013-03-05 22:55:00
5:15 PM,21.2,21.2,100,30.29,10.0,NNW,23.0,28.8,N/A,Snow,Light Snow,340,2013-03-05 23:15:00
5:35 PM,19.4,19.4,100,30.28,10.0,NNW,17.3,-,0.01,Snow,Light Snow,340,2013-03-05 23:35:00
5:55 PM,19.4,19.4,100,30.29,10.0,NNW,17.3,24.2,0.01,Snow,Light Snow,340,2013-03-05 23:55:00
6:15 PM,19.4,19.4,100,30.30,10.0,NNW,17.3,24.2,N/A,Snow,Light Snow,340,2013-03-06 00:15:00
6:35 PM,19.4,19.4,100,30.30,10.0,NNW,17.3,24.2,N/A,Snow,Light Snow,340,2013-03-06 00:35:00
6:55 PM,19.4,19.4,100,30.31,10.0,North,20.7,24.2,0.01,Snow,Light Snow,350,2013-03-06 00:55:00
7:15 PM,19.4,19.4,100,30.32,10.0,North,15.0,-,N/A,Snow,Light Snow,350,2013-03-06 01:15:00
7:35 PM,19.4,19.4,100,30.31,10.0,North,18.4,-,N/A,Snow,Light Snow,350,2013-03-06 01:35:00
7:55 PM,19.4,19.4,100,30.30,10.0,North,19.6,23.0,N/A,Rain,Freezing Rain,350,2013-03-06 01:55:00
8:15 PM,19.4,19.4,100,30.31,10.0,North,17.3,20.7,N/A,,Overcast,360,2013-03-06 02:15:00
8:35 PM,19.4,19.4,100,30.31,10.0,North,17.3,-,N/A,,Overcast,350,2013-03-06 02:35:00
8:55 PM,17.6,17.6,100,30.32,10.0,North,17.3,-,N/A,,Overcast,350,2013-03-06 02:55:00
9:15 PM,17.6,17.6,100,30.32,10.0,North,18.4,23.0,N/A,,Overcast,360,2013-03-06 03:15:00
9:35 PM,17.6,17.6,100,30.33,10.0,North,16.1,19.6,N/A,,Overcast,360,2013-03-06 03:35:00
9:55 PM,17.6,17.6,100,30.33,10.0,North,15.0,-,N/A,,Overcast,360,2013-03-06 03:55:00
10:15 PM,17.6,17.6,100,30.33,10.0,NNW,13.8,-,N/A,,Overcast,340,2013-03-06 04:15:00
10:35 PM,17.6,17.6,100,30.33,10.0,NNW,11.5,-,N/A,Snow,Light Snow,340,2013-03-06 04:35:00
10:55 PM,17.6,17.6,100,30.33,10.0,North,-9999.0,-,N/A,Snow,Light Snow,0,2013-03-06 04:55:00
11:15 PM,17.6,17.6,100,30.34,10.0,North,15.0,-,N/A,,Overcast,360,2013-03-06 05:15:00
11:35 PM,17.6,17.6,100,30.35,10.0,North,12.7,-,N/A,,Overcast,360,2013-03-06 05:35:00
11:55 PM,17.6,17.6,100,30.35,10.0,North,9.2,-,N/A,,Overcast,360,2013-03-06 05:55:00